createdAt,value
2018-04-24T00:02:26.014Z,87.40
2018-04-24T00:04:53.648Z,86.70
2018-04-24T00:07:21.270Z,86.80
2018-04-24T00:09:50.212Z,87.90
2018-04-24T00:12:17.792Z,87.80
2018-04-24T00:14:45.479Z,87.50
2018-04-24T00:17:13.777Z,88.00
2018-04-24T00:19:42.162Z,89.20
2018-04-24T00:22:09.781Z,89.00
2018-04-24T00:24:37.354Z,88.50
2018-04-24T00:27:05.017Z,87.90
2018-04-24T00:29:32.604Z,88.30
2018-04-24T00:32:00.215Z,88.80
2018-04-24T00:34:28.050Z,88.90
2018-04-24T00:36:55.591Z,88.70
2018-04-24T00:39:23.177Z,88.90
2018-04-24T00:41:50.731Z,89.30
2018-04-24T00:44:18.280Z,90.00
2018-04-24T00:46:45.866Z,89.70
2018-04-24T00:49:13.411Z,89.90
2018-04-24T00:51:41.013Z,89.80
2018-04-24T00:54:08.597Z,89.60
2018-04-24T00:56:36.218Z,88.90
2018-04-24T00:59:03.800Z,89.40
2018-04-24T01:01:31.439Z,89.20
2018-04-24T01:03:59.018Z,88.80
2018-04-24T01:06:26.546Z,89.20
2018-04-24T01:08:54.155Z,88.60
2018-04-24T01:11:22.522Z,88.30
2018-04-24T01:13:50.156Z,88.30
2018-04-24T01:16:17.727Z,88.10
2018-04-24T01:18:45.323Z,87.80
2018-04-24T01:21:13.658Z,87.90
2018-04-24T01:23:41.292Z,87.90
2018-04-24T01:26:09.588Z,89.00
2018-04-24T01:28:37.168Z,89.00
2018-04-24T01:31:04.724Z,88.80
2018-04-24T01:33:32.279Z,88.40
2018-04-24T01:35:59.880Z,88.80
2018-04-24T01:38:27.426Z,88.80
2018-04-24T01:40:55.801Z,90.10
2018-04-24T01:43:23.333Z,90.00
2018-04-24T01:45:50.931Z,90.00
2018-04-24T01:48:18.454Z,89.70
2018-04-24T01:50:46.087Z,89.30
2018-04-24T01:53:13.654Z,89.70
2018-04-24T01:55:41.288Z,90.10
2018-04-24T01:58:09.629Z,90.00
2018-04-24T02:00:37.173Z,90.00
2018-04-24T02:03:04.746Z,89.80
2018-04-24T02:05:32.290Z,90.10
2018-04-24T02:07:59.879Z,89.90
2018-04-24T02:10:27.428Z,90.00
2018-04-24T02:12:55.000Z,90.10
2018-04-24T02:15:22.520Z,90.30
2018-04-24T02:17:50.079Z,90.10
2018-04-24T02:20:17.588Z,89.60
2018-04-24T02:22:45.140Z,89.20
2018-04-24T02:25:12.650Z,88.30
2018-04-24T02:27:40.199Z,86.00
2018-04-24T02:30:07.732Z,84.80
2018-04-24T02:32:36.013Z,84.30
2018-04-24T02:35:04.336Z,85.30
2018-04-24T02:37:31.888Z,85.20
2018-04-24T02:39:59.734Z,84.50
2018-04-24T02:42:27.237Z,83.70
2018-04-24T02:44:54.832Z,84.30
2018-04-24T02:47:22.348Z,83.60
2018-04-24T02:49:49.909Z,84.40
2018-04-24T02:52:17.420Z,82.00
2018-04-24T02:54:44.971Z,81.20
2018-04-24T02:57:13.280Z,81.80
2018-04-24T02:59:40.849Z,81.70
2018-04-24T03:02:08.369Z,82.00
2018-04-24T03:04:36.664Z,80.70
2018-04-24T03:07:04.254Z,80.70
2018-04-24T03:09:31.818Z,81.00
2018-04-24T03:11:59.379Z,80.30
2018-04-24T03:14:26.915Z,79.70
2018-04-24T03:16:54.479Z,81.10
2018-04-24T03:19:22.014Z,80.20
2018-04-24T03:21:49.632Z,80.00
2018-04-24T03:24:17.153Z,79.10
2018-04-24T03:26:44.699Z,78.90
2018-04-24T03:29:12.205Z,79.30
2018-04-24T03:31:39.786Z,78.80
2018-04-24T03:34:07.317Z,79.50
2018-04-24T03:36:34.847Z,77.90
2018-04-24T03:39:02.456Z,78.40
2018-04-24T03:41:29.963Z,78.10
2018-04-24T03:43:57.501Z,78.00
2018-04-24T03:46:25.036Z,77.70
2018-04-24T03:48:53.382Z,77.90
2018-04-24T03:51:20.912Z,77.80
2018-04-24T03:53:48.487Z,77.30
2018-04-24T03:56:16.020Z,77.40
2018-04-24T03:58:44.324Z,77.50
2018-04-24T04:01:11.828Z,77.40
2018-04-24T04:03:39.392Z,77.50
2018-04-24T04:06:06.927Z,77.50
2018-04-24T04:08:34.472Z,77.80
2018-04-24T04:11:02.020Z,78.80
2018-04-24T04:13:29.616Z,78.60
2018-04-24T04:15:57.205Z,78.40
2018-04-24T04:18:37.479Z,78.50
2018-04-24T04:21:16.860Z,78.40
2018-04-24T04:23:56.147Z,78.10
2018-04-24T04:26:24.468Z,78.30
2018-04-24T04:28:52.046Z,78.10
2018-04-24T04:31:19.909Z,78.10
2018-04-24T04:33:48.302Z,77.90
2018-04-24T04:36:15.857Z,77.60
2018-04-24T04:38:43.372Z,77.70
2018-04-24T04:41:10.924Z,77.80
2018-04-24T04:43:38.436Z,77.60
2018-04-24T04:46:06.012Z,77.10
2018-04-24T04:48:34.364Z,77.40
2018-04-24T04:51:01.953Z,77.40
2018-04-24T04:53:29.500Z,77.50
2018-04-24T04:55:57.075Z,77.60
2018-04-24T04:58:25.380Z,77.40
2018-04-24T05:00:52.968Z,77.30
2018-04-24T05:03:20.511Z,77.50
2018-04-24T05:05:48.164Z,77.50
2018-04-24T05:08:15.692Z,77.50
2018-04-24T05:10:43.779Z,77.70
2018-04-24T05:13:11.379Z,77.70
2018-04-24T05:15:38.956Z,78.10
2018-04-24T05:18:06.552Z,78.20
2018-04-24T05:20:34.106Z,77.90
2018-04-24T05:23:02.787Z,78.30
2018-04-24T05:25:31.142Z,78.40
2018-04-24T05:27:58.736Z,78.30
2018-04-24T05:30:26.307Z,78.00
2018-04-24T05:32:53.956Z,78.40
2018-04-24T05:35:21.535Z,77.80
2018-04-24T05:37:49.360Z,77.80
2018-04-24T05:40:17.030Z,77.40
2018-04-24T05:42:45.463Z,77.70
2018-04-24T05:45:13.168Z,77.60
2018-04-24T05:47:40.889Z,77.70
2018-04-24T05:50:08.559Z,77.70
2018-04-24T05:52:36.182Z,77.00
2018-04-24T05:55:03.860Z,77.20
2018-04-24T05:57:31.553Z,77.70
2018-04-24T05:59:59.238Z,77.40
2018-04-24T06:02:27.730Z,77.20
2018-04-24T06:04:55.400Z,77.20
2018-04-24T06:07:23.263Z,76.90
2018-04-24T06:09:51.002Z,76.30
2018-04-24T06:12:18.807Z,76.40
2018-04-24T06:14:46.673Z,76.10
2018-04-24T06:17:14.377Z,75.20
2018-04-24T06:19:42.121Z,75.70
2018-04-24T06:22:09.772Z,75.40
2018-04-24T06:24:37.437Z,75.00
2018-04-24T06:27:04.993Z,74.30
2018-04-24T06:29:32.683Z,74.20
2018-04-24T06:32:00.502Z,74.00
2018-04-24T06:34:28.380Z,74.40
2018-04-24T06:36:56.223Z,74.70
2018-04-24T06:39:23.970Z,74.30
2018-04-24T06:41:51.639Z,74.60
2018-04-24T06:44:20.136Z,75.10
2018-04-24T06:46:48.649Z,74.70
2018-04-24T06:49:16.343Z,74.70
2018-04-24T06:51:44.177Z,75.10
2018-04-24T06:54:11.906Z,75.00
2018-04-24T06:56:39.753Z,74.10
2018-04-24T06:59:07.357Z,74.90
2018-04-24T07:01:35.013Z,74.40
2018-04-24T07:04:05.293Z,75.10
2018-04-24T07:06:33.014Z,74.90
2018-04-24T07:09:01.466Z,73.50
2018-04-24T07:11:29.137Z,73.40
2018-04-24T07:13:57.571Z,73.50
2018-04-24T07:16:25.419Z,73.40
2018-04-24T07:18:53.119Z,74.00
2018-04-24T07:21:20.877Z,74.10
2018-04-24T07:23:48.447Z,73.60
2018-04-24T07:26:15.981Z,73.80
2018-04-24T07:28:43.652Z,73.50
2018-04-24T07:31:11.393Z,73.50
2018-04-24T07:33:39.241Z,72.80
2018-04-24T07:36:07.036Z,72.80
2018-04-24T07:38:34.929Z,71.20
2018-04-24T07:41:05.519Z,70.60
2018-04-24T07:43:33.282Z,71.70
2018-04-24T07:46:00.907Z,71.00
2018-04-24T07:48:28.533Z,71.40
2018-04-24T07:50:56.910Z,70.30
2018-04-24T07:53:24.651Z,69.60
2018-04-24T07:55:52.421Z,70.30
2018-04-24T07:58:20.320Z,70.00
2018-04-24T08:00:48.140Z,70.00
2018-04-24T08:03:15.794Z,69.70
2018-04-24T08:05:43.422Z,68.90
2018-04-24T08:08:11.103Z,69.60
2018-04-24T08:10:38.699Z,69.00
2018-04-24T08:13:06.290Z,68.70
2018-04-24T08:15:34.728Z,68.70
2018-04-24T08:18:02.368Z,68.60
2018-04-24T08:20:31.141Z,69.40
2018-04-24T08:22:58.793Z,69.20
2018-04-24T08:25:26.423Z,68.40
2018-04-24T08:27:54.063Z,68.20
2018-04-24T08:30:21.700Z,68.10
2018-04-24T08:32:50.083Z,67.00
2018-04-24T08:35:17.929Z,66.80
2018-04-24T08:37:45.728Z,65.80
2018-04-24T08:40:13.409Z,63.60
2018-04-24T08:42:41.011Z,63.40
2018-04-24T08:45:08.653Z,61.10
2018-04-24T08:47:36.233Z,63.00
2018-04-24T08:50:04.278Z,64.20
2018-04-24T08:52:31.951Z,63.10
2018-04-24T08:54:59.572Z,61.70
2018-04-24T08:57:27.258Z,62.50
2018-04-24T08:59:55.783Z,62.60
2018-04-24T09:02:23.580Z,62.60
2018-04-24T09:04:51.993Z,62.40
2018-04-24T09:07:19.746Z,61.90
2018-04-24T09:09:47.318Z,62.30
2018-04-24T09:12:14.993Z,60.60
2018-04-24T09:14:43.443Z,60.00
2018-04-24T09:17:11.183Z,59.80
2018-04-24T09:19:39.052Z,61.80
2018-04-24T09:22:06.767Z,59.00
2018-04-24T09:24:34.530Z,58.90
2018-04-24T09:27:02.394Z,59.40
2018-04-24T09:29:30.214Z,58.70
2018-04-24T09:31:58.049Z,57.60
2018-04-24T09:34:25.821Z,58.40
2018-04-24T09:36:53.761Z,57.50
2018-04-24T09:39:21.558Z,57.50
2018-04-24T09:41:49.441Z,57.30
2018-04-24T09:44:17.316Z,57.50
2018-04-24T09:46:45.125Z,57.90
2018-04-24T09:49:12.921Z,58.00
2018-04-24T09:51:40.764Z,58.70
2018-04-24T09:54:08.687Z,58.60
2018-04-24T09:56:36.511Z,57.80
2018-04-24T09:59:04.315Z,57.40
2018-04-24T10:01:31.935Z,58.50
2018-04-24T10:03:59.801Z,56.30
2018-04-24T10:06:27.603Z,56.30
2018-04-24T10:08:55.297Z,56.70
2018-04-24T10:11:23.077Z,55.40
2018-04-24T10:13:50.929Z,55.50
2018-04-24T10:16:19.911Z,54.30
2018-04-24T10:18:47.740Z,54.40
2018-04-24T10:21:15.551Z,53.60
2018-04-24T10:23:43.466Z,53.20
2018-04-24T10:26:11.196Z,51.60
2018-04-24T10:28:38.992Z,52.10
2018-04-24T10:31:06.884Z,50.50
2018-04-24T10:33:34.685Z,49.80
2018-04-24T10:36:02.286Z,50.10
2018-04-24T10:38:30.103Z,51.40
2018-04-24T10:40:57.942Z,50.30
2018-04-24T10:43:25.832Z,50.50
2018-04-24T10:45:53.797Z,49.20
2018-04-24T10:48:21.509Z,49.00
2018-04-24T10:50:49.221Z,49.40
2018-04-24T10:53:17.008Z,48.80
2018-04-24T10:55:44.709Z,49.40
2018-04-24T10:58:12.471Z,49.20
2018-04-24T11:00:41.181Z,49.60
2018-04-24T11:03:08.933Z,49.60
2018-04-24T11:05:37.022Z,48.80
2018-04-24T11:08:05.456Z,49.00
2018-04-24T11:10:33.704Z,48.00
2018-04-24T11:13:01.486Z,47.10
2018-04-24T11:15:29.337Z,47.50
2018-04-24T11:17:57.215Z,47.00
2018-04-24T11:20:25.013Z,45.10
2018-04-24T11:22:52.785Z,43.70
2018-04-24T11:25:20.658Z,43.70
2018-04-24T11:27:49.262Z,41.80
2018-04-24T11:30:17.089Z,41.80
2018-04-24T11:32:45.081Z,43.40
2018-04-24T11:35:12.935Z,42.30
2018-04-24T11:37:41.701Z,42.40
2018-04-24T11:40:09.609Z,42.30
2018-04-24T11:42:37.627Z,41.90
2018-04-24T11:45:05.439Z,41.90
2018-04-24T11:47:33.266Z,41.70
2018-04-24T11:50:01.185Z,41.70
2018-04-24T11:52:29.069Z,41.20
2018-04-24T11:54:56.896Z,40.30
2018-04-24T11:57:25.427Z,41.40
2018-04-24T11:59:53.048Z,41.30
2018-04-24T12:02:20.712Z,41.40
2018-04-24T12:04:49.312Z,41.30
2018-04-24T12:07:17.060Z,41.30
2018-04-24T12:09:44.878Z,41.00
2018-04-24T12:12:13.012Z,42.60
2018-04-24T12:14:40.770Z,42.90
2018-04-24T12:17:08.848Z,40.80
2018-04-24T12:19:36.588Z,41.80
2018-04-24T12:22:04.340Z,44.50
2018-04-24T12:24:32.627Z,43.70
2018-04-24T12:27:00.398Z,41.10
2018-04-24T12:29:28.932Z,41.60
2018-04-24T12:31:56.589Z,41.60
2018-04-24T12:34:24.236Z,41.20
2018-04-24T12:36:52.053Z,39.70
2018-04-24T12:39:19.776Z,40.20
2018-04-24T12:41:47.442Z,41.00
2018-04-24T12:44:15.307Z,42.20
2018-04-24T12:46:43.153Z,41.20
2018-04-24T12:49:10.921Z,40.60
2018-04-24T12:51:38.649Z,41.00
2018-04-24T12:54:06.648Z,40.20
2018-04-24T12:56:34.537Z,41.00
2018-04-24T12:59:02.470Z,40.10
2018-04-24T13:01:30.977Z,40.80
2018-04-24T13:03:58.791Z,40.80
2018-04-24T13:06:26.493Z,40.70
2018-04-24T13:08:54.324Z,41.40
2018-04-24T13:11:22.113Z,42.00
2018-04-24T13:13:49.813Z,41.30
2018-04-24T13:16:17.614Z,39.50
2018-04-24T13:18:45.420Z,40.00
2018-04-24T13:21:13.436Z,40.20
2018-04-24T13:23:41.218Z,40.50
2018-04-24T13:26:09.546Z,40.40
2018-04-24T13:28:38.637Z,42.00
2018-04-24T13:31:08.643Z,40.10
2018-04-24T13:33:36.462Z,39.90
2018-04-24T13:36:04.228Z,40.50
2018-04-24T13:38:32.081Z,42.10
2018-04-24T13:40:59.878Z,39.20
2018-04-24T13:43:27.766Z,39.10
2018-04-24T13:45:56.268Z,38.70
2018-04-24T13:48:24.082Z,38.70
2018-04-24T13:50:51.852Z,40.70
2018-04-24T13:53:19.781Z,38.90
2018-04-24T13:55:47.548Z,39.40
2018-04-24T13:58:15.214Z,38.60
2018-04-24T14:00:42.828Z,38.90
2018-04-24T14:03:10.593Z,39.50
2018-04-24T14:05:38.384Z,40.70
2018-04-24T14:08:06.274Z,40.00
2018-04-24T14:10:34.086Z,41.20
2018-04-24T14:13:01.916Z,39.30
2018-04-24T14:15:29.742Z,40.70
2018-04-24T14:17:57.844Z,42.80
2018-04-24T14:20:26.482Z,39.50
2018-04-24T14:22:54.267Z,39.50
2018-04-24T14:25:22.904Z,38.50
2018-04-24T14:27:50.683Z,38.50
2018-04-24T14:30:18.449Z,39.80
2018-04-24T14:32:46.151Z,40.10
2018-04-24T14:35:13.976Z,38.80
2018-04-24T14:37:42.632Z,39.10
2018-04-24T14:40:10.322Z,39.10
2018-04-24T14:42:38.139Z,38.90
2018-04-24T14:45:05.984Z,41.20
2018-04-24T14:47:33.824Z,39.00
2018-04-24T14:50:01.628Z,39.20
2018-04-24T14:52:29.464Z,39.60
2018-04-24T14:54:58.097Z,41.40
2018-04-24T14:57:25.800Z,41.30
2018-04-24T14:59:53.485Z,40.60
2018-04-24T15:02:21.178Z,40.70
2018-04-24T15:04:49.653Z,40.20
2018-04-24T15:07:18.099Z,40.00
2018-04-24T15:09:45.794Z,41.20
2018-04-24T15:12:13.671Z,40.90
2018-04-24T15:14:41.510Z,40.30
2018-04-24T15:17:09.269Z,41.00
2018-04-24T15:19:36.943Z,40.60
2018-04-24T15:22:04.783Z,41.60
2018-04-24T15:24:32.742Z,40.70
2018-04-24T15:27:01.251Z,42.40
2018-04-24T15:29:29.765Z,41.90
2018-04-24T15:31:57.485Z,41.90
2018-04-24T15:34:25.165Z,42.00
2018-04-24T15:36:52.783Z,42.40
2018-04-24T15:39:20.530Z,41.80
2018-04-24T15:41:48.396Z,43.00
2018-04-24T15:44:16.102Z,42.80
2018-04-24T15:46:43.841Z,43.30
2018-04-24T15:49:11.557Z,43.10
2018-04-24T15:51:39.301Z,44.20
2018-04-24T15:54:07.050Z,44.40
2018-04-24T15:56:34.747Z,43.40
2018-04-24T15:59:02.463Z,43.60
2018-04-24T16:01:30.220Z,43.00
2018-04-24T16:03:57.990Z,43.60
2018-04-24T16:06:25.760Z,43.50
2018-04-24T16:08:53.692Z,44.40
2018-04-24T16:11:21.355Z,45.10
2018-04-24T16:13:49.132Z,44.70
2018-04-24T16:16:16.804Z,45.60
2018-04-24T16:18:44.589Z,44.80
2018-04-24T16:21:12.516Z,45.80
2018-04-24T16:23:41.193Z,46.60
2018-04-24T16:26:09.032Z,46.30
2018-04-24T16:28:37.542Z,45.40
2018-04-24T16:31:05.274Z,45.40
2018-04-24T16:33:33.859Z,46.70
2018-04-24T16:36:01.593Z,46.60
2018-04-24T16:38:29.259Z,47.20
2018-04-24T16:40:57.223Z,46.50
2018-04-24T16:43:24.795Z,46.40
2018-04-24T16:45:52.393Z,46.00
2018-04-24T16:48:20.113Z,46.30
2018-04-24T16:50:47.847Z,46.40
2018-04-24T16:53:15.550Z,46.10
2018-04-24T16:55:44.308Z,46.30
2018-04-24T16:58:12.070Z,46.30
2018-04-24T17:00:39.920Z,47.50
2018-04-24T17:03:07.620Z,47.00
2018-04-24T17:05:35.988Z,46.70
2018-04-24T17:08:03.539Z,46.70
2018-04-24T17:10:31.169Z,47.90
2018-04-24T17:12:58.770Z,46.80
2018-04-24T17:15:26.405Z,47.00
2018-04-24T17:17:54.164Z,47.70
2018-04-24T17:20:21.851Z,49.50
2018-04-24T17:22:49.521Z,49.70
2018-04-24T17:25:17.277Z,51.00
2018-04-24T17:27:45.095Z,49.60
2018-04-24T17:30:13.466Z,49.20
2018-04-24T17:32:41.059Z,49.10
2018-04-24T17:35:08.782Z,50.00
2018-04-24T17:37:36.494Z,50.70
2018-04-24T17:40:04.575Z,50.40
2018-04-24T17:42:32.363Z,51.30
2018-04-24T17:44:59.972Z,51.00
2018-04-24T17:47:28.741Z,51.80
2018-04-24T17:49:56.684Z,52.40
2018-04-24T17:52:24.462Z,51.40
2018-04-24T17:54:53.334Z,52.40
2018-04-24T17:57:21.122Z,52.90
2018-04-24T17:59:48.775Z,52.20
2018-04-24T18:02:16.424Z,53.00
2018-04-24T18:04:44.173Z,53.30
2018-04-24T18:07:11.952Z,53.00
2018-04-24T18:09:39.575Z,53.60
2018-04-24T18:12:07.207Z,53.90
2018-04-24T18:14:35.735Z,55.10
2018-04-24T18:17:03.295Z,55.00
2018-04-24T18:19:31.047Z,55.50
2018-04-24T18:21:58.817Z,55.80
2018-04-24T18:24:26.575Z,56.60
2018-04-24T18:26:54.341Z,57.00
2018-04-24T18:29:22.169Z,57.50
2018-04-24T18:31:50.728Z,59.00
2018-04-24T18:34:18.582Z,58.90
2018-04-24T18:36:46.261Z,59.40
2018-04-24T18:39:14.038Z,59.10
2018-04-24T18:41:41.771Z,59.40
2018-04-24T18:44:09.450Z,59.50
2018-04-24T18:46:37.204Z,59.90
2018-04-24T18:49:04.804Z,60.10
2018-04-24T18:51:32.460Z,60.40
2018-04-24T18:54:00.086Z,60.40
2018-04-24T18:56:27.746Z,61.40
2018-04-24T18:58:55.479Z,61.70
2018-04-24T19:01:23.224Z,61.90
2018-04-24T19:03:51.774Z,62.20
2018-04-24T19:06:19.533Z,62.10
2018-04-24T19:08:47.324Z,62.40
2018-04-24T19:11:15.016Z,63.10
2018-04-24T19:13:42.567Z,63.20
2018-04-24T19:16:11.623Z,63.30
2018-04-24T19:18:45.002Z,63.20
2018-04-24T19:21:12.788Z,65.20
2018-04-24T19:23:41.357Z,67.40
2018-04-24T19:26:09.060Z,66.80
2018-04-24T19:28:36.654Z,67.00
2018-04-24T19:31:09.809Z,66.90
2018-04-24T19:33:37.567Z,67.50
2018-04-24T19:36:05.274Z,67.10
2018-04-24T19:38:33.106Z,66.90
2018-04-24T19:41:06.667Z,66.60
2018-04-24T19:43:35.166Z,67.50
2018-04-24T19:46:02.909Z,67.50
2018-04-24T19:48:36.208Z,67.40
2018-04-24T19:51:03.930Z,67.70
2018-04-24T19:53:32.405Z,67.90
2018-04-24T19:56:00.165Z,67.90
2018-04-24T19:58:27.892Z,68.40
2018-04-24T20:00:55.516Z,68.90
2018-04-24T20:03:23.257Z,69.00
2018-04-24T20:05:51.186Z,69.10
2018-04-24T20:08:19.517Z,69.40
2018-04-24T20:10:47.092Z,69.40
2018-04-24T20:13:14.751Z,69.30
2018-04-24T20:15:42.517Z,69.60
2018-04-24T20:18:10.339Z,69.40
2018-04-24T20:20:38.063Z,69.30
2018-04-24T20:23:05.862Z,70.40
2018-04-24T20:25:34.468Z,70.00
2018-04-24T20:28:02.297Z,69.90
2018-04-24T20:30:30.043Z,69.60
2018-04-24T20:32:57.923Z,69.80
2018-04-24T20:35:25.660Z,69.80
2018-04-24T20:37:53.413Z,70.20
2018-04-24T20:40:21.204Z,70.10
2018-04-24T20:42:49.100Z,70.30
2018-04-24T20:45:17.624Z,72.70
2018-04-24T20:47:45.368Z,72.00
2018-04-24T20:50:13.186Z,71.80
2018-04-24T20:52:40.958Z,71.30
2018-04-24T20:55:08.859Z,70.90
2018-04-24T20:57:36.581Z,71.50
2018-04-24T21:00:04.762Z,72.00
2018-04-24T21:02:33.431Z,71.80
2018-04-24T21:05:01.171Z,71.90
2018-04-24T21:07:28.736Z,72.30
2018-04-24T21:09:56.385Z,73.10
2018-04-24T21:12:23.932Z,73.40
2018-04-24T21:14:51.629Z,73.90
2018-04-24T21:17:22.603Z,73.60
2018-04-24T21:19:50.208Z,73.80
2018-04-24T21:22:17.786Z,74.40
2018-04-24T21:24:45.494Z,74.80
2018-04-24T21:27:14.088Z,74.90
2018-04-24T21:29:42.578Z,75.30
2018-04-24T21:32:10.337Z,75.30
2018-04-24T21:34:38.654Z,75.50
2018-04-24T21:37:06.472Z,75.90
2018-04-24T21:39:34.214Z,76.70
2018-04-24T21:42:01.949Z,76.80
2018-04-24T21:44:29.719Z,75.80
2018-04-24T21:46:57.292Z,75.00
2018-04-24T21:49:25.005Z,75.30
2018-04-24T21:51:52.608Z,75.40
2018-04-24T21:54:20.325Z,75.60
2018-04-24T21:56:48.100Z,76.70
2018-04-24T21:59:15.852Z,77.40
2018-04-24T22:01:43.646Z,76.30
2018-04-24T22:04:11.334Z,75.90
2018-04-24T22:06:38.988Z,75.80
2018-04-24T22:09:06.667Z,76.40
2018-04-24T22:11:34.363Z,75.90
2018-04-24T22:14:02.825Z,75.90
2018-04-24T22:16:30.418Z,75.90
2018-04-24T22:18:59.662Z,76.10
2018-04-24T22:21:27.338Z,76.10
2018-04-24T22:23:54.895Z,75.50
2018-04-24T22:26:22.469Z,75.40
2018-04-24T22:28:50.065Z,75.70
2018-04-24T22:31:17.730Z,76.20
2018-04-24T22:33:45.350Z,77.50
2018-04-24T22:36:13.030Z,77.90
2018-04-24T22:38:41.190Z,77.80
2018-04-24T22:41:08.944Z,78.70
2018-04-24T22:43:36.632Z,77.70
2018-04-24T22:46:05.125Z,78.30
2018-04-24T22:48:33.498Z,78.10
2018-04-24T22:51:01.833Z,78.40
2018-04-24T22:53:29.418Z,78.30
2018-04-24T22:55:56.977Z,78.80
2018-04-24T22:58:24.622Z,78.90
2018-04-24T23:00:52.945Z,79.30
2018-04-24T23:03:20.565Z,78.60
2018-04-24T23:05:48.109Z,78.20
2018-04-24T23:08:15.759Z,79.20
2018-04-24T23:10:55.152Z,79.30
